EJU89RC LIRI-LICR
Flight info
| Callsign | EJU89RC |
|---|---|
| Flight time | 0h 39m |
| Altitude | 19000 |
| Route | POLIT6C/23 POLIT M620 CDC L137 GIMEL |
| Aircraft | A319/M-SDE3FGHIRWY/LB1 |
Departure
| Time | 2026-05-04 15:36 |
|---|---|
| Airport | Salerno Costa d'Amalfi Airport (LIRI) |
Arrival
| Time | 2026-05-04 16:16 |
|---|---|
| Airport | Reggio Calabria Airport (LICR) |
| Time | Latitude | Longitude | Altitude | Speed | Heading |
|---|---|---|---|---|---|
| 2026-05-04 15:04 | 40.62086 | 14.92088 | 84 ft | 0 kts | 141° |
| 2026-05-04 15:30 | 40.62112 | 14.92027 | 89 ft | 0 kts | 52° |
| 2026-05-04 15:32 | 40.62121 | 14.92042 | 87 ft | 3 kts | 52° |
| 2026-05-04 15:32 | 40.62161 | 14.92110 | 84 ft | 6 kts | 52° |
| 2026-05-04 15:33 | 40.62229 | 14.92089 | 86 ft | 7 kts | 320° |
| 2026-05-04 15:34 | 40.62199 | 14.91899 | 84 ft | 9 kts | 315° |
| 2026-05-04 15:34 | 40.62222 | 14.91877 | 86 ft | 0 kts | 323° |
| 2026-05-04 15:34 | 40.62224 | 14.91875 | 86 ft | 2 kts | 323° |
| 2026-05-04 15:35 | 40.62298 | 14.91780 | 86 ft | 10 kts | 278° |
| 2026-05-04 15:35 | 40.62254 | 14.91688 | 85 ft | 20 kts | 232° |
| 2026-05-04 15:35 | 40.62005 | 14.91270 | 85 ft | 98 kts | 232° |
| 2026-05-04 15:36 | 40.60825 | 14.89283 | 928 ft | 148 kts | 231° |
| 2026-05-04 15:36 | 40.60143 | 14.88205 | 1522 ft | 164 kts | 230° |
| 2026-05-04 15:36 | 40.59360 | 14.86979 | 1998 ft | 186 kts | 230° |
| 2026-05-04 15:37 | 40.58472 | 14.85592 | 2427 ft | 211 kts | 230° |
| 2026-05-04 15:37 | 40.57476 | 14.84031 | 2980 ft | 235 kts | 230° |
| 2026-05-04 15:37 | 40.56357 | 14.82276 | 3644 ft | 257 kts | 230° |
| 2026-05-04 15:37 | 40.55194 | 14.80443 | 4625 ft | 264 kts | 230° |
| 2026-05-04 15:38 | 40.54010 | 14.78573 | 5674 ft | 269 kts | 230° |
| 2026-05-04 15:38 | 40.52802 | 14.76665 | 6702 ft | 274 kts | 230° |
| 2026-05-04 15:38 | 40.51576 | 14.74728 | 7691 ft | 278 kts | 230° |
| 2026-05-04 15:38 | 40.50332 | 14.72759 | 8707 ft | 281 kts | 231° |
| 2026-05-04 15:39 | 40.49078 | 14.70767 | 9738 ft | 285 kts | 231° |
| 2026-05-04 15:39 | 40.47808 | 14.68750 | 10675 ft | 288 kts | 231° |
| 2026-05-04 15:39 | 40.45179 | 14.64674 | 12379 ft | 303 kts | 224° |
| 2026-05-04 15:40 | 40.43314 | 14.63196 | 12711 ft | 328 kts | 198° |
| 2026-05-04 15:40 | 40.41009 | 14.62951 | 13367 ft | 341 kts | 173° |
| 2026-05-04 15:40 | 40.38721 | 14.63862 | 14169 ft | 349 kts | 154° |
| 2026-05-04 15:40 | 40.36693 | 14.65659 | 14891 ft | 355 kts | 143° |
| 2026-05-04 15:41 | 40.34724 | 14.67657 | 15603 ft | 361 kts | 143° |
| 2026-05-04 15:41 | 40.32735 | 14.69706 | 16310 ft | 366 kts | 143° |
| 2026-05-04 15:41 | 40.30718 | 14.71791 | 16899 ft | 373 kts | 143° |
| 2026-05-04 15:41 | 40.28673 | 14.73904 | 17099 ft | 375 kts | 143° |
| 2026-05-04 15:42 | 40.26622 | 14.76018 | 17145 ft | 376 kts | 143° |
| 2026-05-04 15:42 | 40.24566 | 14.78133 | 17143 ft | 376 kts | 143° |
| 2026-05-04 15:42 | 40.22493 | 14.80260 | 17553 ft | 381 kts | 143° |
| 2026-05-04 15:42 | 40.20373 | 14.82429 | 18345 ft | 384 kts | 143° |
| 2026-05-04 15:43 | 40.18250 | 14.84598 | 18890 ft | 390 kts | 143° |
| 2026-05-04 15:43 | 40.16106 | 14.86784 | 19083 ft | 392 kts | 143° |
| 2026-05-04 15:43 | 40.13959 | 14.88973 | 19136 ft | 392 kts | 143° |
| 2026-05-04 15:43 | 40.11810 | 14.91166 | 19137 ft | 392 kts | 143° |
| 2026-05-04 15:44 | 40.09664 | 14.93357 | 19141 ft | 392 kts | 143° |
| 2026-05-04 15:44 | 40.07514 | 14.95549 | 19138 ft | 392 kts | 143° |
| 2026-05-04 15:44 | 40.05362 | 14.97740 | 19138 ft | 392 kts | 143° |
| 2026-05-04 15:44 | 40.03210 | 14.99925 | 19138 ft | 392 kts | 143° |
| 2026-05-04 15:45 | 40.01058 | 15.02105 | 19138 ft | 392 kts | 143° |
| 2026-05-04 15:45 | 39.98906 | 15.04283 | 19138 ft | 392 kts | 143° |
| 2026-05-04 15:45 | 39.96751 | 15.06465 | 19139 ft | 392 kts | 143° |
| 2026-05-04 15:45 | 39.94597 | 15.08643 | 19138 ft | 392 kts | 143° |
| 2026-05-04 15:46 | 39.92445 | 15.10819 | 19143 ft | 392 kts | 143° |
| 2026-05-04 15:46 | 39.90259 | 15.13030 | 19144 ft | 392 kts | 143° |
| 2026-05-04 15:46 | 39.88105 | 15.15212 | 19146 ft | 393 kts | 143° |
| 2026-05-04 15:46 | 39.85948 | 15.17395 | 19149 ft | 393 kts | 143° |
| 2026-05-04 15:47 | 39.83790 | 15.19576 | 19151 ft | 393 kts | 143° |
| 2026-05-04 15:47 | 39.81630 | 15.21754 | 19154 ft | 393 kts | 143° |
| 2026-05-04 15:47 | 39.79465 | 15.23931 | 19159 ft | 393 kts | 143° |
| 2026-05-04 15:47 | 39.77304 | 15.26097 | 19159 ft | 393 kts | 143° |
| 2026-05-04 15:48 | 39.75137 | 15.28273 | 19160 ft | 393 kts | 143° |
| 2026-05-04 15:48 | 39.72973 | 15.30448 | 19165 ft | 393 kts | 143° |
| 2026-05-04 15:48 | 39.68695 | 15.34876 | 19163 ft | 394 kts | 141° |
| 2026-05-04 15:49 | 39.66614 | 15.37191 | 19170 ft | 394 kts | 140° |
| 2026-05-04 15:49 | 39.64553 | 15.39536 | 19174 ft | 394 kts | 140° |
| 2026-05-04 15:49 | 39.62497 | 15.41887 | 19176 ft | 394 kts | 140° |
| 2026-05-04 15:49 | 39.60438 | 15.44234 | 19184 ft | 394 kts | 140° |
| 2026-05-04 15:50 | 39.58369 | 15.46570 | 19180 ft | 394 kts | 140° |
| 2026-05-04 15:50 | 39.56294 | 15.48884 | 19185 ft | 394 kts | 140° |
| 2026-05-04 15:50 | 39.54211 | 15.51191 | 19185 ft | 394 kts | 140° |
| 2026-05-04 15:50 | 39.52128 | 15.53493 | 19185 ft | 394 kts | 140° |
| 2026-05-04 15:51 | 39.50043 | 15.55796 | 19189 ft | 394 kts | 140° |
| 2026-05-04 15:51 | 39.47957 | 15.58103 | 19196 ft | 394 kts | 140° |
| 2026-05-04 15:51 | 39.45847 | 15.60439 | 19192 ft | 394 kts | 140° |
| 2026-05-04 15:51 | 39.43764 | 15.62744 | 19197 ft | 394 kts | 140° |
| 2026-05-04 15:52 | 39.41683 | 15.65044 | 19200 ft | 394 kts | 140° |
| 2026-05-04 15:52 | 39.39597 | 15.67342 | 19200 ft | 394 kts | 141° |
| 2026-05-04 15:52 | 39.37508 | 15.69639 | 19205 ft | 394 kts | 140° |
| 2026-05-04 15:52 | 39.35424 | 15.71932 | 19200 ft | 394 kts | 140° |
| 2026-05-04 15:53 | 39.33335 | 15.74226 | 19202 ft | 394 kts | 141° |
| 2026-05-04 15:53 | 39.31249 | 15.76514 | 19205 ft | 394 kts | 141° |
| 2026-05-04 15:53 | 39.29161 | 15.78804 | 19203 ft | 394 kts | 140° |
| 2026-05-04 15:53 | 39.27075 | 15.81096 | 19210 ft | 394 kts | 140° |
| 2026-05-04 15:54 | 39.24991 | 15.83384 | 19206 ft | 394 kts | 140° |
| 2026-05-04 15:54 | 39.22906 | 15.85672 | 19206 ft | 394 kts | 140° |
| 2026-05-04 15:54 | 39.20821 | 15.87956 | 19206 ft | 394 kts | 141° |
| 2026-05-04 15:54 | 39.18731 | 15.90242 | 19211 ft | 394 kts | 140° |
| 2026-05-04 15:55 | 39.16644 | 15.92520 | 19209 ft | 393 kts | 141° |
| 2026-05-04 15:55 | 39.14553 | 15.94800 | 19207 ft | 393 kts | 141° |
| 2026-05-04 15:55 | 39.12464 | 15.97078 | 19199 ft | 393 kts | 141° |
| 2026-05-04 15:55 | 39.10377 | 15.99353 | 19193 ft | 393 kts | 141° |
| 2026-05-04 15:56 | 39.08288 | 16.01624 | 19187 ft | 393 kts | 141° |
| 2026-05-04 15:56 | 39.06198 | 16.03892 | 19179 ft | 393 kts | 141° |
| 2026-05-04 15:56 | 39.04105 | 16.06162 | 19173 ft | 393 kts | 141° |
| 2026-05-04 15:56 | 39.02015 | 16.08424 | 19167 ft | 393 kts | 141° |
| 2026-05-04 15:57 | 38.99924 | 16.10683 | 19164 ft | 393 kts | 141° |
| 2026-05-04 15:57 | 38.97831 | 16.12945 | 19158 ft | 393 kts | 141° |
| 2026-05-04 15:57 | 38.96418 | 16.14471 | 19157 ft | 393 kts | 141° |
| 2026-05-04 15:57 | 38.94326 | 16.16731 | 19155 ft | 393 kts | 141° |
| 2026-05-04 15:58 | 38.92239 | 16.18984 | 19154 ft | 393 kts | 141° |
| 2026-05-04 15:58 | 38.90149 | 16.21241 | 19153 ft | 392 kts | 141° |
| 2026-05-04 15:58 | 38.88056 | 16.23497 | 19150 ft | 393 kts | 141° |
| 2026-05-04 15:58 | 38.85965 | 16.25745 | 19150 ft | 393 kts | 141° |
| 2026-05-04 15:59 | 38.83872 | 16.27995 | 19147 ft | 393 kts | 141° |
| 2026-05-04 15:59 | 38.81779 | 16.30247 | 19154 ft | 393 kts | 141° |
| 2026-05-04 15:59 | 38.79516 | 16.32181 | 19154 ft | 390 kts | 156° |
| 2026-05-04 15:59 | 38.76945 | 16.33194 | 19153 ft | 386 kts | 174° |
| 2026-05-04 16:00 | 38.74282 | 16.33197 | 19150 ft | 380 kts | 192° |
| 2026-05-04 16:00 | 38.71773 | 16.32256 | 19111 ft | 373 kts | 208° |
| 2026-05-04 16:00 | 38.69604 | 16.30533 | 18677 ft | 364 kts | 223° |
| 2026-05-04 16:00 | 38.67675 | 16.28444 | 18157 ft | 362 kts | 223° |
| 2026-05-04 16:01 | 38.65760 | 16.26364 | 17631 ft | 360 kts | 223° |
| 2026-05-04 16:01 | 38.63851 | 16.24298 | 17122 ft | 358 kts | 223° |
| 2026-05-04 16:01 | 38.61947 | 16.22251 | 16628 ft | 356 kts | 223° |
| 2026-05-04 16:01 | 38.60055 | 16.20226 | 16149 ft | 354 kts | 223° |
| 2026-05-04 16:02 | 38.58170 | 16.18212 | 15669 ft | 352 kts | 222° |
| 2026-05-04 16:02 | 38.56298 | 16.16210 | 15208 ft | 350 kts | 222° |
| 2026-05-04 16:02 | 38.52586 | 16.12246 | 14301 ft | 346 kts | 222° |
| 2026-05-04 16:03 | 38.50746 | 16.10281 | 13871 ft | 344 kts | 221° |
| 2026-05-04 16:03 | 38.48916 | 16.08327 | 13402 ft | 342 kts | 222° |
| 2026-05-04 16:03 | 38.47100 | 16.06388 | 12924 ft | 339 kts | 221° |
| 2026-05-04 16:03 | 38.45297 | 16.04463 | 12429 ft | 337 kts | 221° |
| 2026-05-04 16:04 | 38.43505 | 16.02549 | 11954 ft | 335 kts | 221° |
| 2026-05-04 16:04 | 38.39952 | 15.98756 | 11297 ft | 321 kts | 221° |
| 2026-05-04 16:04 | 38.38268 | 15.96966 | 11182 ft | 309 kts | 221° |
| 2026-05-04 16:05 | 38.36646 | 15.95244 | 11053 ft | 298 kts | 221° |
| 2026-05-04 16:05 | 38.35077 | 15.93576 | 10928 ft | 289 kts | 221° |
| 2026-05-04 16:05 | 38.32186 | 15.90512 | 10632 ft | 284 kts | 221° |
| 2026-05-04 16:06 | 38.30673 | 15.88898 | 10409 ft | 282 kts | 222° |
| 2026-05-04 16:06 | 38.28699 | 15.83161 | 9469 ft | 271 kts | 276° |
| 2026-05-04 16:07 | 38.29457 | 15.80174 | 9115 ft | 262 kts | 300° |
| 2026-05-04 16:07 | 38.31511 | 15.74193 | 8711 ft | 232 kts | 289° |
| 2026-05-04 16:08 | 38.31967 | 15.72163 | 7982 ft | 247 kts | 284° |
| 2026-05-04 16:08 | 38.32667 | 15.65381 | 6516 ft | 259 kts | 271° |
| 2026-05-04 16:09 | 38.32518 | 15.60835 | 5692 ft | 256 kts | 263° |
| 2026-05-04 16:09 | 38.31271 | 15.56744 | 4995 ft | 248 kts | 223° |
| 2026-05-04 16:10 | 38.28363 | 15.54814 | 4648 ft | 226 kts | 199° |
| 2026-05-04 16:11 | 38.23932 | 15.54826 | 3976 ft | 199 kts | 175° |
| 2026-05-04 16:11 | 38.22600 | 15.55124 | 3665 ft | 193 kts | 160° |
| 2026-05-04 16:12 | 38.19073 | 15.57376 | 2740 ft | 181 kts | 152° |
| 2026-05-04 16:12 | 38.15899 | 15.59437 | 1985 ft | 157 kts | 153° |
| 2026-05-04 16:13 | 38.14144 | 15.60571 | 1559 ft | 132 kts | 154° |
| 2026-05-04 16:13 | 38.12545 | 15.61607 | 1189 ft | 127 kts | 154° |
| 2026-05-04 16:14 | 38.10966 | 15.62642 | 832 ft | 128 kts | 153° |
| 2026-05-04 16:14 | 38.09383 | 15.63686 | 479 ft | 128 kts | 153° |
| 2026-05-04 16:15 | 38.07165 | 15.65129 | 44 ft | 85 kts | 153° |
| 2026-05-04 16:16 | 38.06644 | 15.65480 | 33 ft | 7 kts | 126° |
| 2026-05-04 16:16 | 38.06838 | 15.65340 | 35 ft | 30 kts | 333° |
| 2026-05-04 16:17 | 38.07194 | 15.65111 | 44 ft | 20 kts | 333° |
| 2026-05-04 16:18 | 38.07334 | 15.65248 | 50 ft | 9 kts | 125° |
| 2026-05-04 16:18 | 38.07277 | 15.65290 | 50 ft | 10 kts | 153° |
| 2026-05-04 16:19 | 38.07255 | 15.65377 | 50 ft | 0 kts | 117° |